LEMH/MAH METAR and TAF weather

Enter ICAO airport designator
Station Type Date Time Source
LEMH METAR 2021/06/24 05:00 UTC NOAA

LEMH 240500Z 36005KT 9999 FEW015 18/17 Q1019


Station Type Date Time Source
LEMH Decoded METAR 2021/06/24 05:00 UTC NOAA

Menorca / Mahon, Spain (LEMH) 39-52N 004-14E 82M
Jun 24, 2021 - 01:00 AM EDT / 2021.06.24 0500 UTC
Wind: from the N (360 degrees) at 6 MPH (5 KT):0
Visibility: greater than 7 mile(s):0
Sky conditions: mostly clear
Temperature: 64 F (18 C)
Dew Point: 62 F (17 C)
Relative Humidity: 93%
Pressure (altimeter): 30.09 in. Hg (1019 hPa)
ob: LEMH 240500Z 36005KT 9999 FEW015 18/17 Q1019
cycle: 5

Station Type Date Time Source
LEMH TAF 2021/06/24 03:27 UTC NOAA

TAF LEMH 240200Z 2403/2503 36006KT 9999 FEW020 TX27/2412Z TN20/2406Z
BECMG 2406/2408 06010KT

Example: see airport list